Time;durP1;ratioP1;P1;durP2;ratioP2;P2;SDS_P1;SDS_P2;PMS_P1;PMS_P2;Temp;Humidity;BMP_temperature;BMP_pressure;BME280_temperature;BME280_humidity;BME280_pressure;Samples;Min_cycle;Max_cycle;Signal;HPM_P1;HPM_P2
2021/11/24 00:01:40;;;;;;;5.47;4.32;;;6.30;99.90;;;;;;5060918;28;20592;-80
2021/11/24 00:04:10;;;;;;;7.45;5.10;;;6.20;99.90;;;;;;5054890;28;20044;-78
2021/11/24 00:06:45;;;;;;;5.13;3.85;;;6.20;99.90;;;;;;5063637;28;20048;-80
2021/11/24 00:09:22;;;;;;;9.68;6.45;;;6.10;99.90;;;;;;5060868;28;20040;-79
2021/11/24 00:11:53;;;;;;;7.13;4.80;;;6.10;99.90;;;;;;5063968;28;20043;-79
2021/11/24 00:14:21;;;;;;;5.57;4.20;;;6.00;99.90;;;;;;5039783;28;20029;-79
2021/11/24 00:16:48;;;;;;;5.95;4.35;;;6.00;99.90;;;;;;5043047;28;20489;-78
2021/11/24 00:19:15;;;;;;;5.22;3.60;;;6.00;99.90;;;;;;5043944;28;20505;-80
2021/11/24 00:21:45;;;;;;;7.03;3.85;;;6.00;99.90;;;;;;5027082;28;20064;-78
2021/11/24 00:24:12;;;;;;;5.78;4.20;;;6.00;99.90;;;;;;5050747;28;20039;-79
2021/11/24 00:26:39;;;;;;;6.82;4.40;;;5.90;99.90;;;;;;5059897;28;20039;-78
2021/11/24 00:29:07;;;;;;;5.07;3.92;;;5.90;99.90;;;;;;5045607;28;20055;-80
2021/11/24 00:31:34;;;;;;;7.72;4.32;;;5.90;99.90;;;;;;5039761;28;20040;-80
2021/11/24 00:34:01;;;;;;;6.90;3.90;;;5.90;99.90;;;;;;5022763;28;20040;-79
2021/11/24 00:36:31;;;;;;;8.23;3.67;;;5.90;99.90;;;;;;5078319;28;20040;-79
2021/11/24 00:39:04;;;;;;;5.32;3.85;;;6.00;99.90;;;;;;5034300;28;20048;-80
2021/11/24 00:41:33;;;;;;;9.93;4.30;;;6.00;99.90;;;;;;5047670;28;20047;-80
2021/11/24 00:44:01;;;;;;;5.97;3.70;;;6.00;99.90;;;;;;5032231;28;20055;-78
2021/11/24 00:46:30;;;;;;;7.35;3.95;;;6.00;99.90;;;;;;5050111;28;20393;-79
2021/11/24 00:48:58;;;;;;;4.47;3.00;;;6.10;99.90;;;;;;5046872;28;20078;-79
2021/11/24 00:51:30;;;;;;;4.88;3.38;;;6.20;99.90;;;;;;5038943;28;20048;-81
2021/11/24 00:54:01;;;;;;;6.00;3.25;;;6.20;99.90;;;;;;5034708;28;20042;-81
2021/11/24 00:56:36;;;;;;;4.32;2.97;;;6.20;99.90;;;;;;5055709;28;20493;-81
2021/11/24 00:59:13;;;;;;;5.32;2.80;;;6.30;99.90;;;;;;5057878;28;20032;-81
2021/11/24 01:01:41;;;;;;;4.13;2.65;;;6.30;99.90;;;;;;5040871;28;20036;-81
2021/11/24 01:04:17;;;;;;;6.03;3.60;;;6.30;99.90;;;;;;5077900;28;20040;-79
2021/11/24 01:06:49;;;;;;;7.05;4.18;;;6.30;99.90;;;;;;5066935;28;20045;-81
2021/11/24 01:09:28;;;;;;;6.95;4.93;;;6.30;99.90;;;;;;5028400;28;20043;-81
2021/11/24 01:11:58;;;;;;;7.45;4.72;;;6.30;99.90;;;;;;5049560;28;20052;-81
2021/11/24 01:14:30;;;;;;;5.72;4.85;;;6.30;99.90;;;;;;5057540;28;20044;-81
2021/11/24 01:17:03;;;;;;;7.30;4.75;;;6.30;99.90;;;;;;5048802;28;20032;-79
2021/11/24 01:19:36;;;;;;;4.43;3.55;;;6.40;99.90;;;;;;5058983;28;20070;-79
2021/11/24 01:22:19;;;;;;;7.60;4.72;;;6.30;99.90;;;;;;5038144;28;20055;-79
2021/11/24 01:24:48;;;;;;;5.68;3.95;;;6.30;99.90;;;;;;5061231;28;20036;-79
2021/11/24 01:27:31;;;;;;;6.80;5.22;;;6.30;99.90;;;;;;5031160;28;20045;-79
2021/11/24 01:47:20;;;;;;;4.75;3.67;;;6.00;99.90;;;;;;5000385;28;20067;-79
2021/11/24 01:51:36;;;;;;;;;;;;;;;;;;;;;
2021/11/24 01:59:16;;;;;;;5.40;3.10;;;5.80;99.90;;;;;;4797356;29;20050;-79
2021/11/24 02:12:16;;;;;;;4.20;3.33;;;5.60;99.90;;;;;;4871357;29;20045;-79
2021/11/24 02:21:09;;;;;;;2.83;2.20;;;5.50;99.90;;;;;;4798558;29;20035;-79
2021/11/24 02:30:18;;;;;;;;;;;;;;;;;;;;;
2021/11/24 02:43:38;;;;;;;4.82;3.42;;;5.20;99.90;;;;;;4933489;29;20043;-79
2021/11/24 02:47:30;;;;;;;4.07;3.65;;;5.10;99.90;;;;;;4934194;28;20055;-78
2021/11/24 02:50:51;;;;;;;5.10;3.55;;;5.00;99.90;;;;;;5011239;28;20040;-79
2021/11/24 02:54:08;;;;;;;;;;;;;;;;;;;;;
2021/11/24 03:05:35;;;;;;;5.68;4.25;;;4.90;99.90;;;;;;4986113;28;20509;-79
2021/11/24 03:08:51;;;;;;;4.55;3.38;;;5.00;99.90;;;;;;4968837;28;20038;-79
2021/11/24 03:11:23;;;;;;;5.38;3.90;;;5.10;99.90;;;;;;5004680;28;20045;-81
2021/11/24 03:14:09;;;;;;;4.10;3.33;;;5.10;99.90;;;;;;5034392;28;20044;-80
2021/11/24 03:16:59;;;;;;;4.15;3.25;;;5.10;99.90;;;;;;5016147;28;20482;-80
2021/11/24 03:22:34;;;;;;;5.15;3.70;;;5.10;99.90;;;;;;5061697;28;20043;-80
2021/11/24 03:25:19;;;;;;;3.35;2.45;;;5.00;99.90;;;;;;5032321;28;20044;-80
2021/11/24 03:28:20;;;;;;;4.32;2.40;;;5.00;99.90;;;;;;5042914;28;20036;-80
2021/11/24 03:34:54;;;;;;;;;;;;;;;;;;;;;
2021/11/24 03:38:14;;;;;;;3.33;2.10;;;5.10;99.90;;;;;;5009134;28;20033;-79
2021/11/24 03:46:27;;;;;;;3.47;2.33;;;5.20;99.90;;;;;;5036317;28;20060;-80
2021/11/24 03:50:20;;;;;;;3.92;2.20;;;5.20;99.90;;;;;;5063603;28;20507;-80
2021/11/24 03:54:01;;;;;;;2.15;1.52;;;5.20;99.90;;;;;;4967689;28;20415;-80
2021/11/24 04:01:33;;;;;;;;;;;;;;;;;;;;;
2021/11/24 04:08:55;;;;;;;2.58;1.35;;;5.40;99.90;;;;;;5028338;28;20073;-78
2021/11/24 04:15:17;;;;;;;2.90;1.63;;;5.50;99.90;;;;;;5003083;28;20044;-78
2021/11/24 04:18:10;;;;;;;3.83;1.40;;;5.50;99.90;;;;;;5062616;28;20055;-78
2021/11/24 04:21:15;;;;;;;;;;;;;;;;;;;;;
2021/11/24 04:23:45;;;;;;;3.20;1.98;;;5.60;99.90;;;;;;5070864;28;20043;-78
2021/11/24 04:26:33;;;;;;;2.58;1.55;;;5.60;99.90;;;;;;5063599;28;20048;-78
2021/11/24 04:29:49;;;;;;;2.47;1.42;;;5.60;99.90;;;;;;5052721;28;20400;-78
2021/11/24 04:32:34;;;;;;;2.63;1.70;;;5.60;99.90;;;;;;5082310;28;20477;-78
2021/11/24 04:39:26;;;;;;;3.00;1.70;;;5.40;99.90;;;;;;5071381;28;20032;-78
2021/11/24 04:46:35;;;;;;;7.40;3.22;;;5.30;99.90;;;;;;5015603;28;20059;-78
2021/11/24 04:49:13;;;;;;;8.30;4.35;;;5.20;99.90;;;;;;5018007;28;20026;-78
2021/11/24 04:52:12;;;;;;;11.55;4.18;;;5.10;99.90;;;;;;5056498;28;20041;-78
2021/11/24 04:55:04;;;;;;;5.68;4.13;;;5.10;99.90;;;;;;5028594;28;20071;-78
2021/11/24 04:59:06;;;;;;;;;;;;;;;;;;;;;
2021/11/24 05:02:46;;;;;;;5.60;3.08;;;5.10;99.90;;;;;;5034281;28;20043;-78
2021/11/24 05:06:00;;;;;;;24.13;5.40;;;5.20;99.90;;;;;;5047845;28;20044;-78
2021/11/24 05:08:55;;;;;;;6.00;4.90;;;5.20;99.90;;;;;;5014325;28;20044;-78
2021/11/24 05:12:04;;;;;;;12.77;4.13;;;5.30;99.90;;;;;;5019114;28;20040;-80
2021/11/24 05:15:35;;;;;;;14.32;3.47;;;5.30;99.90;;;;;;4978168;28;20796;-80
2021/11/24 05:18:51;;;;;;;17.55;3.92;;;5.30;99.90;;;;;;4955402;28;20512;-80
2021/11/24 05:22:09;;;;;;;22.48;4.32;;;5.40;99.90;;;;;;4982781;28;20073;-80
2021/11/24 05:25:32;;;;;;;22.23;3.08;;;5.40;99.90;;;;;;4962315;28;21321;-80
2021/11/24 05:29:04;;;;;;;13.20;3.15;;;5.40;99.90;;;;;;4971126;28;20047;-80
2021/11/24 05:32:20;;;;;;;22.05;2.85;;;5.40;99.90;;;;;;4970184;28;20035;-80
2021/11/24 05:35:04;;;;;;;6.30;3.17;;;5.50;99.90;;;;;;4961442;28;20058;-80
2021/11/24 05:38:02;;;;;;;15.82;3.53;;;5.50;99.90;;;;;;4955184;28;20365;-80
2021/11/24 05:40:46;;;;;;;17.90;3.42;;;5.60;99.90;;;;;;4960907;28;20065;-80
2021/11/24 05:50:38;;;;;;;6.53;4.03;;;5.70;99.90;;;;;;5028092;28;20051;-79
2021/11/24 05:53:50;;;;;;;;;;;;;;;;;;;;;
2021/11/24 05:58:39;;;;;;;5.03;3.67;;;5.80;99.90;;;;;;4980223;28;20065;-79
2021/11/24 06:02:53;;;;;;;;;;;;;;;;;;;;;
2021/11/24 06:10:33;;;;;;;6.10;3.72;;;5.70;99.90;;;;;;4951862;28;20043;-77
2021/11/24 06:13:14;;;;;;;6.50;3.97;;;5.80;99.90;;;;;;4970353;28;20049;-77
2021/11/24 06:16:06;;;;;;;8.63;4.68;;;5.90;99.90;;;;;;4961641;28;20492;-77
2021/11/24 06:23:01;;;;;;;7.45;3.78;;;5.80;99.90;;;;;;4942207;28;20061;-77
2021/11/24 06:25:46;;;;;;;7.10;3.92;;;5.90;99.90;;;;;;4925026;29;20055;-79
2021/11/24 06:28:16;;;;;;;7.05;3.97;;;6.00;99.90;;;;;;4937257;28;20059;-77
2021/11/24 06:30:45;;;;;;;7.60;4.60;;;6.00;99.90;;;;;;4953155;28;20039;-81
2021/11/24 06:33:12;;;;;;;7.28;5.07;;;6.00;99.90;;;;;;5003741;28;20496;-81
2021/11/24 06:35:38;;;;;;;6.80;4.88;;;6.00;99.90;;;;;;4981372;28;20046;-78
2021/11/24 06:38:05;;;;;;;7.07;4.50;;;6.00;99.90;;;;;;4991588;28;20041;-78
2021/11/24 06:40:34;;;;;;;8.25;4.50;;;6.00;99.90;;;;;;4974012;28;20049;-79
2021/11/24 06:43:00;;;;;;;8.18;4.97;;;6.10;99.90;;;;;;4976360;28;20045;-77
2021/11/24 06:45:27;;;;;;;16.98;10.10;;;6.00;99.90;;;;;;4980853;28;20055;-77
2021/11/24 06:47:56;;;;;;;11.95;8.02;;;6.10;99.90;;;;;;5028903;28;20036;-77
2021/11/24 06:50:23;;;;;;;11.38;7.88;;;6.10;99.90;;;;;;5013330;28;20056;-78
2021/11/24 06:52:50;;;;;;;9.20;5.63;;;6.10;99.90;;;;;;5020299;28;20041;-78
2021/11/24 06:55:16;;;;;;;14.45;9.45;;;6.10;99.90;;;;;;4995230;28;20042;-80
2021/11/24 06:57:42;;;;;;;13.35;8.00;;;6.10;99.90;;;;;;5026461;28;20040;-79
2021/11/24 07:00:10;;;;;;;13.00;8.35;;;6.20;99.90;;;;;;5009962;28;20033;-80
2021/11/24 07:02:39;;;;;;;10.90;7.13;;;6.20;99.90;;;;;;5016928;28;20049;-81
2021/11/24 07:05:06;;;;;;;8.70;5.72;;;6.20;99.90;;;;;;5030926;28;20040;-79
2021/11/24 07:07:33;;;;;;;10.40;6.85;;;6.20;99.90;;;;;;5006987;28;20033;-80
2021/11/24 07:09:59;;;;;;;10.35;6.00;;;6.30;99.90;;;;;;5013742;28;20039;-77
2021/11/24 07:12:29;;;;;;;12.23;7.65;;;6.30;99.90;;;;;;5028282;28;20040;-79
2021/11/24 07:14:58;;;;;;;14.45;8.27;;;6.30;99.90;;;;;;5001828;28;20037;-80
2021/11/24 07:17:26;;;;;;;10.73;6.95;;;6.40;99.90;;;;;;5025955;28;20463;-79
2021/11/24 07:19:53;;;;;;;10.77;6.00;;;6.40;99.90;;;;;;5012115;28;20033;-84
2021/11/24 07:22:20;;;;;;;8.32;5.30;;;6.40;99.90;;;;;;5030066;28;20056;-79
2021/11/24 07:24:46;;;;;;;11.43;6.35;;;6.40;99.90;;;;;;5031085;28;20037;-79
2021/11/24 07:27:12;;;;;;;10.70;5.53;;;6.40;99.90;;;;;;5011061;28;20041;-79
2021/11/24 07:29:41;;;;;;;10.60;5.78;;;6.50;99.90;;;;;;5011841;28;20037;-79
2021/11/24 07:32:08;;;;;;;8.23;4.53;;;6.40;99.90;;;;;;5027275;28;20045;-79
2021/11/24 07:34:34;;;;;;;9.32;5.15;;;6.40;99.90;;;;;;5031235;28;20045;-84
2021/11/24 07:37:01;;;;;;;9.30;5.20;;;6.30;99.90;;;;;;5014727;28;20037;-81
2021/11/24 07:39:27;;;;;;;9.70;5.30;;;6.30;99.90;;;;;;5025976;28;20030;-87
2021/11/24 07:41:56;;;;;;;8.80;4.55;;;6.30;99.90;;;;;;5014570;28;20691;-80
2021/11/24 07:44:23;;;;;;;9.27;5.63;;;6.30;99.90;;;;;;5030561;28;20044;-80
2021/11/24 07:48:00;;;;;;;8.63;4.80;;;6.30;99.90;;;;;;5063312;28;20044;-80
2021/11/24 07:50:49;;;;;;;8.20;4.50;;;6.30;99.90;;;;;;5033178;28;20114;-79
2021/11/24 07:53:15;;;;;;;9.57;5.07;;;6.30;99.90;;;;;;5037947;28;20482;-79
2021/11/24 07:55:46;;;;;;;8.25;4.47;;;6.40;99.90;;;;;;5019940;28;21473;-80
2021/11/24 07:58:14;;;;;;;12.40;6.07;;;6.40;99.90;;;;;;5031014;28;20056;-80
2021/11/24 08:00:42;;;;;;;10.20;6.05;;;6.40;99.90;;;;;;5006749;28;20045;-79
2021/11/24 08:03:09;;;;;;;10.88;6.07;;;6.40;99.90;;;;;;5019315;28;20063;-79
2021/11/24 08:05:36;;;;;;;15.52;6.30;;;6.40;99.90;;;;;;5004363;28;20053;-79
2021/11/24 08:08:04;;;;;;;10.20;5.57;;;6.50;99.90;;;;;;5020532;28;20048;-80
2021/11/24 08:10:31;;;;;;;10.40;5.65;;;6.50;99.90;;;;;;5009937;28;20606;-79
2021/11/24 08:12:58;;;;;;;10.27;5.15;;;6.60;99.90;;;;;;5019034;28;20037;-79
2021/11/24 08:15:25;;;;;;;10.45;5.28;;;6.60;99.90;;;;;;5029663;28;20053;-82
2021/11/24 08:17:52;;;;;;;12.63;6.68;;;6.70;99.90;;;;;;5048836;28;20040;-80
2021/11/24 08:20:20;;;;;;;12.82;6.50;;;6.70;99.90;;;;;;5013552;28;20044;-78
2021/11/24 08:22:47;;;;;;;12.07;6.15;;;6.80;99.90;;;;;;5006768;28;20041;-79
2021/11/24 08:25:16;;;;;;;12.63;6.65;;;6.90;99.90;;;;;;5012870;28;20051;-79
2021/11/24 08:27:42;;;;;;;10.30;4.72;;;6.90;99.90;;;;;;5014850;28;20052;-79
2021/11/24 08:30:10;;;;;;;15.45;7.78;;;7.00;99.90;;;;;;5016417;28;20036;-79
2021/11/24 08:32:36;;;;;;;12.50;6.82;;;7.10;99.90;;;;;;5025751;28;20044;-79
2021/11/24 08:35:06;;;;;;;15.70;8.75;;;7.10;99.90;;;;;;5046875;28;20108;-79
2021/11/24 08:37:32;;;;;;;14.40;7.50;;;7.10;99.90;;;;;;5017804;28;20028;-79
2021/11/24 08:39:59;;;;;;;17.88;8.88;;;7.10;99.90;;;;;;5020452;28;20032;-79
2021/11/24 08:42:26;;;;;;;19.95;9.32;;;7.20;99.90;;;;;;5011530;28;20051;-78
2021/11/24 08:44:53;;;;;;;16.70;8.88;;;7.20;99.90;;;;;;5037235;28;20056;-78
2021/11/24 08:47:20;;;;;;;18.80;8.68;;;7.20;99.90;;;;;;5020969;28;20056;-79
2021/11/24 08:49:47;;;;;;;17.48;8.48;;;7.30;99.90;;;;;;5066202;28;20036;-79
2021/11/24 08:52:14;;;;;;;19.52;9.35;;;7.30;99.90;;;;;;5038944;28;20397;-78
2021/11/24 08:54:41;;;;;;;19.17;9.20;;;7.40;99.90;;;;;;5018800;28;20383;-80
2021/11/24 08:57:08;;;;;;;20.67;10.05;;;7.50;99.90;;;;;;5049697;28;20032;-80
2021/11/24 08:59:42;;;;;;;20.10;9.20;;;7.60;99.90;;;;;;5016083;28;20044;-80
2021/11/24 09:02:10;;;;;;;17.48;9.77;;;7.70;99.90;;;;;;5050622;28;20029;-78
2021/11/24 09:04:37;;;;;;;25.35;15.10;;;7.70;99.90;;;;;;5035773;28;20059;-79
2021/11/24 09:07:08;;;;;;;19.27;11.13;;;7.80;99.90;;;;;;5018729;28;20047;-79
2021/11/24 09:09:38;;;;;;;20.75;11.07;;;7.80;99.90;;;;;;5019801;28;20050;-79
2021/11/24 09:12:07;;;;;;;20.75;11.45;;;7.80;99.90;;;;;;5022497;28;20041;-83
2021/11/24 09:14:33;;;;;;;19.55;11.27;;;7.90;99.90;;;;;;5018043;28;20397;-77
2021/11/24 09:17:00;;;;;;;21.90;11.10;;;8.00;99.90;;;;;;5065349;28;20049;-79
2021/11/24 09:19:26;;;;;;;20.60;10.48;;;8.00;99.90;;;;;;5030458;28;20036;-83
2021/11/24 09:21:54;;;;;;;17.90;10.13;;;8.00;99.90;;;;;;5047148;28;20032;-78
2021/11/24 09:24:26;;;;;;;18.52;9.80;;;8.10;99.90;;;;;;5015350;28;20107;-79
2021/11/24 09:27:03;;;;;;;21.75;10.70;;;8.10;99.90;;;;;;5005675;28;20523;-79
2021/11/24 09:29:30;;;;;;;18.20;10.43;;;8.20;99.90;;;;;;5020729;28;20053;-78
2021/11/24 09:31:56;;;;;;;16.17;9.48;;;8.30;99.90;;;;;;5049022;28;20043;-77
2021/11/24 09:34:24;;;;;;;16.58;10.50;;;8.40;99.90;;;;;;5069915;28;20493;-79
2021/11/24 09:36:50;;;;;;;21.05;12.75;;;8.50;99.90;;;;;;5070580;28;20028;-78
2021/11/24 09:39:17;;;;;;;19.65;11.98;;;8.50;99.90;;;;;;5018177;28;20583;-78
2021/11/24 09:41:46;;;;;;;16.85;10.95;;;8.50;99.90;;;;;;5051844;28;20037;-82
2021/11/24 09:44:13;;;;;;;14.73;9.63;;;8.50;99.90;;;;;;5047246;28;20041;-80
2021/11/24 09:46:51;;;;;;;14.02;9.68;;;8.50;99.90;;;;;;5031753;28;20409;-79
2021/11/24 09:49:20;;;;;;;13.88;9.80;;;8.50;99.90;;;;;;5033293;28;20032;-80
2021/11/24 09:51:48;;;;;;;14.77;10.57;;;8.50;99.90;;;;;;5055059;28;20061;-82
2021/11/24 09:54:16;;;;;;;14.73;10.10;;;8.60;99.90;;;;;;5032852;28;20032;-80
2021/11/24 09:56:45;;;;;;;16.30;10.52;;;8.60;99.90;;;;;;5034439;28;20033;-79
2021/11/24 09:59:12;;;;;;;15.13;10.75;;;8.60;99.90;;;;;;5046801;28;20389;-80
2021/11/24 10:01:39;;;;;;;13.73;10.90;;;8.60;99.90;;;;;;5067501;28;20032;-80
2021/11/24 10:04:06;;;;;;;15.25;11.38;;;8.70;99.90;;;;;;5050950;28;20044;-80
2021/11/24 10:06:34;;;;;;;15.48;11.73;;;8.80;99.90;;;;;;5047734;28;20028;-79
2021/11/24 10:09:02;;;;;;;14.95;12.35;;;8.90;99.90;;;;;;5062129;28;20516;-80
2021/11/24 10:11:48;;;;;;;15.07;10.98;;;8.80;99.90;;;;;;5049460;28;20051;-79
2021/11/24 10:14:14;;;;;;;16.75;12.25;;;8.80;99.90;;;;;;5051052;28;20032;-78
2021/11/24 10:16:41;;;;;;;14.32;11.70;;;8.70;99.90;;;;;;5045673;28;20035;-79
2021/11/24 10:19:10;;;;;;;14.25;11.43;;;8.70;99.90;;;;;;5064953;28;20024;-78
2021/11/24 10:21:57;;;;;;;18.30;13.95;;;8.60;99.90;;;;;;5050540;28;20035;-78
2021/11/24 10:24:32;;;;;;;23.77;16.65;;;8.60;99.90;;;;;;5035609;28;20032;-78
2021/11/24 10:27:05;;;;;;;24.13;16.35;;;8.60;99.90;;;;;;5065413;28;20036;-78
2021/11/24 10:29:32;;;;;;;28.73;19.02;;;8.60;99.90;;;;;;5066935;28;20389;-78
2021/11/24 10:32:06;;;;;;;25.60;17.15;;;8.60;99.90;;;;;;5070358;28;20051;-78
2021/11/24 10:34:36;;;;;;;22.23;15.13;;;8.70;99.90;;;;;;5067723;28;20063;-78
2021/11/24 10:37:10;;;;;;;20.23;12.90;;;8.80;99.90;;;;;;5073077;28;20493;-77
2021/11/24 10:39:42;;;;;;;17.60;11.60;;;8.80;99.90;;;;;;5068261;28;20036;-77
2021/11/24 10:42:11;;;;;;;12.80;8.45;;;8.90;99.90;;;;;;5069350;28;20350;-78
2021/11/24 10:44:39;;;;;;;6.95;4.50;;;9.10;99.90;;;;;;5071251;28;20048;-78
2021/11/24 10:47:09;;;;;;;3.88;2.20;;;9.10;99.90;;;;;;4987757;28;20057;-78
2021/11/24 10:49:43;;;;;;;4.05;2.13;;;9.20;99.90;;;;;;5050679;28;20037;-78
2021/11/24 10:52:35;;;;;;;3.92;1.95;;;9.30;99.90;;;;;;5019261;28;20520;-78
2021/11/24 10:55:13;;;;;;;3.00;1.40;;;9.40;99.90;;;;;;5047316;28;20393;-78
2021/11/24 10:57:44;;;;;;;3.17;1.50;;;9.50;99.90;;;;;;5046857;28;20044;-77
2021/11/24 11:00:13;;;;;;;3.72;1.88;;;9.50;99.90;;;;;;5044016;28;20048;-78
2021/11/24 11:02:47;;;;;;;2.25;1.10;;;9.60;99.90;;;;;;5048386;28;20028;-78
2021/11/24 11:05:25;;;;;;;2.45;1.25;;;9.70;99.90;;;;;;5044951;28;20036;-78
2021/11/24 11:07:52;;;;;;;3.05;1.95;;;9.70;99.90;;;;;;5033597;28;20036;-79
2021/11/24 11:10:28;;;;;;;3.80;1.00;;;9.80;99.90;;;;;;5028936;28;20029;-80
2021/11/24 11:13:04;;;;;;;1.70;0.80;;;9.80;99.90;;;;;;5050595;28;20021;-80
2021/11/24 11:15:52;;;;;;;1.70;0.80;;;9.80;99.90;;;;;;5028562;28;20044;-78
2021/11/24 11:18:24;;;;;;;1.55;0.77;;;9.80;99.90;;;;;;5027284;28;20044;-80
2021/11/24 11:21:07;;;;;;;1.40;0.70;;;9.80;99.90;;;;;;5017406;28;20044;-77
2021/11/24 11:23:51;;;;;;;1.65;0.60;;;9.70;99.90;;;;;;5045573;28;20033;-80
2021/11/24 11:26:20;;;;;;;1.83;1.08;;;9.70;99.90;;;;;;5030620;28;20398;-81
2021/11/24 11:28:55;;;;;;;2.47;0.73;;;9.70;99.90;;;;;;5027156;28;20037;-80
2021/11/24 11:31:28;;;;;;;3.55;1.40;;;9.70;99.90;;;;;;5013159;28;20029;-80
2021/11/24 11:34:19;;;;;;;2.53;1.17;;;9.60;99.90;;;;;;5031803;28;20509;-80
2021/11/24 11:36:54;;;;;;;5.00;3.33;;;9.60;99.90;;;;;;5034364;28;20030;-80
2021/11/24 11:39:21;;;;;;;13.35;4.88;;;9.50;99.90;;;;;;5002222;28;20033;-79
2021/11/24 11:41:50;;;;;;;5.75;1.98;;;9.50;99.90;;;;;;5003524;28;20048;-79
2021/11/24 11:44:19;;;;;;;4.38;2.42;;;9.40;99.90;;;;;;5031572;28;20052;-77
2021/11/24 11:46:50;;;;;;;3.38;1.63;;;9.40;99.90;;;;;;5047898;28;20045;-78
2021/11/24 11:49:20;;;;;;;2.75;1.33;;;9.40;99.90;;;;;;5030727;28;20044;-77
2021/11/24 11:51:49;;;;;;;2.38;1.42;;;9.30;99.90;;;;;;5032136;28;20021;-79
2021/11/24 11:54:30;;;;;;;2.53;1.15;;;9.30;99.90;;;;;;5047686;28;20033;-78
2021/11/24 11:56:57;;;;;;;2.50;0.90;;;9.20;99.90;;;;;;5048506;28;20029;-78
2021/11/24 11:59:29;;;;;;;1.60;0.90;;;9.20;99.90;;;;;;5032866;28;20047;-79
2021/11/24 12:02:01;;;;;;;1.75;0.70;;;9.20;99.90;;;;;;5025354;28;20029;-78
2021/11/24 12:04:29;;;;;;;2.03;0.70;;;9.20;99.90;;;;;;5047520;28;20083;-78
2021/11/24 12:06:55;;;;;;;1.67;0.60;;;9.20;99.90;;;;;;5031476;28;20036;-78
2021/11/24 12:09:28;;;;;;;1.50;0.70;;;9.30;99.90;;;;;;5032133;28;20033;-77
2021/11/24 12:12:12;;;;;;;1.23;0.60;;;9.30;99.90;;;;;;5047664;28;20053;-79
2021/11/24 12:14:57;;;;;;;2.00;1.00;;;9.30;99.90;;;;;;5021182;28;20036;-79
2021/11/24 12:17:37;;;;;;;2.95;1.10;;;9.40;99.90;;;;;;5020042;28;20052;-80
2021/11/24 12:22:49;;;;;;;3.22;1.55;;;9.50;99.90;;;;;;5036580;28;20056;-74
2021/11/24 12:25:25;;;;;;;2.35;1.10;;;9.50;99.90;;;;;;5024499;28;20045;-74
2021/11/24 12:27:54;;;;;;;3.15;1.35;;;9.50;99.90;;;;;;5049726;28;20040;-75
2021/11/24 12:33:06;;;;;;;4.68;1.80;;;9.50;99.90;;;;;;5023851;28;20032;-78
2021/11/24 12:35:36;;;;;;;2.95;1.70;;;9.50;99.90;;;;;;5024783;28;20031;-78
2021/11/24 12:38:05;;;;;;;3.40;1.63;;;9.50;99.90;;;;;;5002903;28;20029;-77
2021/11/24 12:40:36;;;;;;;3.55;1.70;;;9.50;99.90;;;;;;5019062;28;20394;-75
2021/11/24 12:43:15;;;;;;;3.22;1.90;;;9.50;99.90;;;;;;5005413;28;20029;-77
2021/11/24 12:46:06;;;;;;;4.43;2.22;;;9.50;99.90;;;;;;5041758;28;20044;-78
2021/11/24 12:48:34;;;;;;;3.35;1.50;;;9.50;99.90;;;;;;5004285;28;20537;-78
2021/11/24 12:51:04;;;;;;;3.47;1.85;;;9.60;99.90;;;;;;5014410;28;20680;-77
2021/11/24 12:53:36;;;;;;;3.75;2.20;;;9.60;99.90;;;;;;5037645;28;20056;-78
2021/11/24 12:56:05;;;;;;;3.22;1.90;;;9.70;99.90;;;;;;5000242;28;20083;-77
2021/11/24 12:58:32;;;;;;;3.00;1.75;;;9.60;99.90;;;;;;5015702;28;20036;-78
2021/11/24 13:01:05;;;;;;;3.97;2.50;;;9.60;99.90;;;;;;5016829;28;20033;-78
2021/11/24 13:03:32;;;;;;;5.55;3.40;;;9.60;99.90;;;;;;5020834;28;20024;-79
2021/11/24 13:05:59;;;;;;;6.95;4.30;;;9.60;99.90;;;;;;5032745;28;20044;-77
2021/11/24 13:08:26;;;;;;;7.30;5.00;;;9.60;99.90;;;;;;5039089;28;20052;-77
2021/11/24 13:11:07;;;;;;;8.75;5.13;;;9.50;99.90;;;;;;4993499;28;20028;-77
2021/11/24 13:13:42;;;;;;;7.28;4.90;;;9.50;99.90;;;;;;5018199;28;20044;-79
2021/11/24 13:16:21;;;;;;;8.40;5.43;;;9.40;99.90;;;;;;5021487;28;20397;-78
2021/11/24 13:18:58;;;;;;;7.43;5.30;;;9.40;99.90;;;;;;5030924;28;20036;-78
2021/11/24 13:21:26;;;;;;;8.65;5.68;;;9.40;99.90;;;;;;5033706;28;20470;-76
2021/11/24 13:24:07;;;;;;;10.88;7.68;;;9.30;99.90;;;;;;5030896;28;20025;-79
2021/11/24 13:26:34;;;;;;;11.43;7.45;;;9.30;99.90;;;;;;5030144;28;20033;-78
2021/11/24 13:29:01;;;;;;;9.75;7.35;;;9.20;99.90;;;;;;5029701;28;20561;-77
2021/11/24 13:31:28;;;;;;;11.57;7.32;;;9.20;99.90;;;;;;5053569;28;20105;-77
2021/11/24 13:33:54;;;;;;;12.48;8.80;;;9.20;99.90;;;;;;5002063;28;20044;-76
2021/11/24 13:36:21;;;;;;;11.73;8.30;;;9.20;99.90;;;;;;4999047;28;20055;-76
2021/11/24 13:38:55;;;;;;;12.00;9.18;;;9.20;99.90;;;;;;5020481;28;20038;-75
2021/11/24 13:41:28;;;;;;;12.70;8.90;;;9.20;99.90;;;;;;5032613;28;20772;-75
2021/11/24 13:43:57;;;;;;;13.93;9.82;;;9.20;99.90;;;;;;5046962;28;20028;-75
2021/11/24 13:46:30;;;;;;;14.10;10.40;;;9.20;99.90;;;;;;5030742;28;20048;-75
2021/11/24 13:49:11;;;;;;;12.70;9.93;;;9.20;99.90;;;;;;5040179;28;20033;-75
2021/11/24 13:51:39;;;;;;;16.10;10.32;;;9.10;99.90;;;;;;5030771;28;20406;-75
2021/11/24 13:54:11;;;;;;;14.73;11.25;;;9.10;99.90;;;;;;5049290;28;20047;-76
2021/11/24 13:56:46;;;;;;;15.98;11.20;;;9.10;99.90;;;;;;5053219;28;20031;-76
2021/11/24 13:59:14;;;;;;;16.30;11.85;;;9.10;99.90;;;;;;5052362;28;20037;-76
2021/11/24 14:01:46;;;;;;;16.60;12.40;;;9.00;99.90;;;;;;5036798;28;20040;-77
2021/11/24 14:04:19;;;;;;;16.70;12.70;;;9.00;99.90;;;;;;5070622;28;20461;-81
2021/11/24 14:06:48;;;;;;;17.92;11.88;;;9.00;99.90;;;;;;5034757;28;20047;-81
2021/11/24 14:09:27;;;;;;;17.23;12.55;;;9.00;99.90;;;;;;5052354;28;20056;-80
2021/11/24 14:12:07;;;;;;;17.15;12.23;;;8.90;99.90;;;;;;5034075;28;20041;-81
2021/11/24 14:15:01;;;;;;;17.95;12.13;;;8.90;99.90;;;;;;5054556;28;20043;-81
2021/11/24 14:17:32;;;;;;;17.13;12.70;;;8.90;99.90;;;;;;5035753;28;20036;-81
2021/11/24 14:20:03;;;;;;;16.73;11.25;;;8.90;99.90;;;;;;5065132;28;20028;-81
2021/11/24 14:22:40;;;;;;;16.92;12.07;;;8.90;99.90;;;;;;5049903;28;20047;-81
2021/11/24 14:25:10;;;;;;;17.10;11.25;;;8.80;99.90;;;;;;5068629;28;20028;-81
2021/11/24 14:27:37;;;;;;;17.25;11.25;;;8.80;99.90;;;;;;5052466;28;20486;-80
2021/11/24 14:30:06;;;;;;;16.70;10.60;;;8.80;99.90;;;;;;5052943;28;20032;-81
2021/11/24 14:32:35;;;;;;;16.63;9.77;;;8.80;99.90;;;;;;5053776;28;20047;-81
2021/11/24 14:35:03;;;;;;;15.85;11.02;;;8.80;99.90;;;;;;5053292;28;20032;-81
2021/11/24 14:37:29;;;;;;;20.02;14.05;;;8.80;99.90;;;;;;5069942;28;20040;-81
2021/11/24 14:39:56;;;;;;;23.17;15.68;;;8.80;99.90;;;;;;5070716;28;20033;-81
2021/11/24 14:42:22;;;;;;;20.13;14.45;;;8.80;99.90;;;;;;5051257;28;20854;-81
2021/11/24 14:44:50;;;;;;;18.55;12.60;;;8.70;99.90;;;;;;5022054;28;20043;-81
2021/11/24 14:47:17;;;;;;;18.58;13.43;;;8.70;99.90;;;;;;5042972;28;20052;-81
2021/11/24 14:49:43;;;;;;;20.10;14.13;;;8.70;99.90;;;;;;5030768;28;20048;-81
2021/11/24 14:52:09;;;;;;;20.13;13.30;;;8.70;99.90;;;;;;5014552;28;20036;-81
2021/11/24 14:54:36;;;;;;;16.85;12.32;;;8.70;99.90;;;;;;5049552;28;20029;-80
2021/11/24 14:57:02;;;;;;;20.85;14.15;;;8.60;99.90;;;;;;5047165;28;20064;-80
2021/11/24 14:59:29;;;;;;;21.15;14.52;;;8.60;99.90;;;;;;5049483;28;20060;-80
2021/11/24 15:01:55;;;;;;;19.45;14.32;;;8.60;99.90;;;;;;5051522;28;20064;-80
2021/11/24 15:04:23;;;;;;;19.25;12.52;;;8.60;99.90;;;;;;5016040;28;20037;-79
2021/11/24 15:06:50;;;;;;;19.10;14.57;;;8.60;99.90;;;;;;5050022;28;20039;-80
2021/11/24 15:09:17;;;;;;;18.27;11.63;;;8.50;99.90;;;;;;5019125;28;20462;-79
2021/11/24 15:11:43;;;;;;;19.23;12.65;;;8.50;99.90;;;;;;5031648;28;20630;-79
2021/11/24 15:14:10;;;;;;;19.67;14.00;;;8.50;99.90;;;;;;5022889;28;20051;-80
2021/11/24 15:16:37;;;;;;;18.02;12.80;;;8.50;99.90;;;;;;5004768;28;20032;-79
2021/11/24 15:19:05;;;;;;;17.55;12.32;;;8.40;99.90;;;;;;5055524;28;20477;-80
2021/11/24 15:21:32;;;;;;;17.52;11.88;;;8.40;99.90;;;;;;5032885;28;20036;-79
2021/11/24 15:23:59;;;;;;;18.02;12.70;;;8.40;99.90;;;;;;5034460;28;20052;-78
2021/11/24 15:26:25;;;;;;;18.52;11.93;;;8.40;99.90;;;;;;5031910;28;20044;-79
2021/11/24 15:28:52;;;;;;;20.15;12.35;;;8.40;99.90;;;;;;5053526;28;20066;-79
2021/11/24 15:31:19;;;;;;;17.95;12.18;;;8.30;99.90;;;;;;5036166;28;20029;-79
2021/11/24 15:33:45;;;;;;;18.20;12.40;;;8.30;99.90;;;;;;5049887;28;20040;-79
2021/11/24 15:36:12;;;;;;;18.75;13.18;;;8.30;99.90;;;;;;5035642;28;20036;-79
2021/11/24 15:38:38;;;;;;;18.92;14.05;;;8.30;99.90;;;;;;5035470;28;20040;-79
2021/11/24 15:41:05;;;;;;;22.05;14.57;;;8.30;99.90;;;;;;5035794;28;20400;-79
2021/11/24 15:43:31;;;;;;;22.20;14.18;;;8.30;99.90;;;;;;5035864;28;20035;-78
2021/11/24 15:45:59;;;;;;;19.60;13.73;;;8.20;99.90;;;;;;5023216;28;20048;-78
2021/11/24 15:48:28;;;;;;;20.58;14.57;;;8.20;99.90;;;;;;5032425;28;20052;-79
2021/11/24 15:50:55;;;;;;;19.33;13.23;;;8.20;99.90;;;;;;5071173;28;20047;-79